createdAt,value
2022-10-11T00:00:33.945Z,11.71
2022-10-11T00:03:36.915Z,11.80
2022-10-11T00:06:39.808Z,11.80
2022-10-11T00:09:42.817Z,11.86
2022-10-11T00:12:46.596Z,11.78
2022-10-11T00:15:49.952Z,11.79
2022-10-11T00:18:52.636Z,11.78
2022-10-11T00:21:55.525Z,11.76
2022-10-11T00:24:59.357Z,11.57
2022-10-11T00:28:02.292Z,11.39
2022-10-11T00:31:13.625Z,11.41
2022-10-11T00:34:18.255Z,11.77
2022-10-11T00:37:21.008Z,11.74
2022-10-11T00:40:24.874Z,11.77
2022-10-11T00:43:29.953Z,11.80
2022-10-11T00:46:33.116Z,11.78
2022-10-11T00:49:44.215Z,11.56
2022-10-11T00:52:54.853Z,11.73
2022-10-11T00:56:12.691Z,11.94
2022-10-11T00:59:21.859Z,11.95
2022-10-11T01:02:25.123Z,11.66
2022-10-11T01:05:30.124Z,11.62
2022-10-11T01:08:34.181Z,11.48
2022-10-11T01:11:41.543Z,11.59
2022-10-11T01:14:56.097Z,11.61
2022-10-11T01:18:22.984Z,11.67
2022-10-11T01:21:49.045Z,11.88
2022-10-11T01:25:13.206Z,11.69
2022-10-11T01:28:40.497Z,11.47
2022-10-11T01:31:54.145Z,11.58
2022-10-11T01:35:06.998Z,11.66
2022-10-11T01:38:31.703Z,11.70
2022-10-11T01:41:39.438Z,11.76
2022-10-11T01:44:46.114Z,11.82
2022-10-11T01:48:01.616Z,11.76
2022-10-11T01:51:04.736Z,11.80
2022-10-11T01:54:10.159Z,11.94
2022-10-11T01:57:31.249Z,11.98
2022-10-11T02:00:52.589Z,12.04
2022-10-11T02:04:08.115Z,11.90
2022-10-11T02:07:37.765Z,11.95
2022-10-11T02:10:50.934Z,12.06
2022-10-11T02:14:02.111Z,11.92
2022-10-11T02:17:13.076Z,12.01
2022-10-11T02:20:21.130Z,11.96
2022-10-11T02:23:32.721Z,12.16
2022-10-11T02:26:37.384Z,12.01
2022-10-11T02:29:43.937Z,11.98
2022-10-11T02:32:49.245Z,12.03
2022-10-11T02:35:58.702Z,12.01
2022-10-11T02:39:08.489Z,11.77
2022-10-11T02:42:23.954Z,11.80
2022-10-11T02:45:42.281Z,11.94
2022-10-11T02:48:45.161Z,11.79
2022-10-11T02:51:47.780Z,11.87
2022-10-11T02:54:50.758Z,11.98
2022-10-11T02:57:54.430Z,12.04
2022-10-11T03:00:57.411Z,11.99
2022-10-11T03:04:02.410Z,11.88
2022-10-11T03:07:05.591Z,11.86
2022-10-11T03:10:10.359Z,12.05
2022-10-11T03:13:18.157Z,12.15
2022-10-11T03:16:21.559Z,11.82
2022-10-11T03:19:24.452Z,11.80
2022-10-11T03:22:27.087Z,12.07
2022-10-11T03:25:30.098Z,11.97
2022-10-11T03:28:32.706Z,11.98
2022-10-11T03:31:35.802Z,11.72
2022-10-11T03:34:38.399Z,11.52
2022-10-11T03:37:41.327Z,11.40
2022-10-11T03:40:44.378Z,11.37
2022-10-11T03:43:47.315Z,11.53
2022-10-11T03:46:49.945Z,11.57
2022-10-11T03:49:53.289Z,11.45
2022-10-11T03:52:55.989Z,11.47
2022-10-11T03:55:58.908Z,11.45
2022-10-11T03:59:02.389Z,11.50
2022-10-11T04:02:05.425Z,11.41
2022-10-11T04:05:08.707Z,11.38
2022-10-11T04:08:12.481Z,11.44
2022-10-11T04:11:16.122Z,11.33
2022-10-11T04:14:18.794Z,11.28
2022-10-11T04:17:22.193Z,11.46
2022-10-11T04:20:24.943Z,11.30
2022-10-11T04:23:28.125Z,11.39
2022-10-11T04:26:31.121Z,11.17
2022-10-11T04:29:34.149Z,10.94
2022-10-11T04:32:36.982Z,11.06
2022-10-11T04:35:40.296Z,11.19
2022-10-11T04:38:43.021Z,11.28
2022-10-11T04:41:46.118Z,11.44
2022-10-11T04:44:48.948Z,11.28
2022-10-11T04:47:51.919Z,11.39
2022-10-11T04:50:54.659Z,11.47
2022-10-11T04:53:57.632Z,11.36
2022-10-11T04:57:00.422Z,11.41
2022-10-11T05:00:05.070Z,11.42
2022-10-11T05:03:07.739Z,11.50
2022-10-11T05:06:11.337Z,11.54
2022-10-11T05:09:14.396Z,11.53
2022-10-11T05:12:17.752Z,11.49
2022-10-11T05:15:20.480Z,11.44
2022-10-11T05:18:24.327Z,11.24
2022-10-11T05:21:28.860Z,11.29
2022-10-11T05:24:31.923Z,11.20
2022-10-11T05:27:34.670Z,11.09
2022-10-11T05:30:37.694Z,11.00
2022-10-11T05:33:41.024Z,11.05
2022-10-11T05:36:45.139Z,11.15
2022-10-11T05:39:47.701Z,11.16
2022-10-11T05:42:50.603Z,11.26
2022-10-11T05:45:53.248Z,11.30
2022-10-11T05:48:56.234Z,11.37
2022-10-11T05:51:59.310Z,11.66
2022-10-11T05:55:03.749Z,11.59
2022-10-11T05:58:07.946Z,11.68
2022-10-11T06:01:27.701Z,11.83
2022-10-11T06:04:31.444Z,11.87
2022-10-11T06:07:36.634Z,12.02
2022-10-11T06:10:40.613Z,12.22
2022-10-11T06:13:44.524Z,12.19
2022-10-11T06:16:47.485Z,12.31
2022-10-11T06:19:51.189Z,12.38
2022-10-11T06:22:54.963Z,12.45
2022-10-11T06:26:07.323Z,12.50
2022-10-11T06:29:10.931Z,12.68
2022-10-11T06:32:13.609Z,12.92
2022-10-11T06:35:18.025Z,13.19
2022-10-11T06:38:21.864Z,13.33
2022-10-11T06:41:27.324Z,13.53
2022-10-11T06:44:30.037Z,13.72
2022-10-11T06:47:32.979Z,14.12
2022-10-11T06:50:58.486Z,14.50
2022-10-11T06:54:03.894Z,14.69
2022-10-11T06:57:06.557Z,14.75
2022-10-11T07:00:12.834Z,14.66
2022-10-11T07:03:15.638Z,15.05
2022-10-11T07:06:21.090Z,15.18
2022-10-11T07:09:23.842Z,15.03
2022-10-11T07:12:26.776Z,14.93
2022-10-11T07:15:29.470Z,14.97
2022-10-11T07:18:33.028Z,14.95
2022-10-11T07:21:38.624Z,14.91
2022-10-11T07:24:41.521Z,15.07
2022-10-11T07:27:44.141Z,15.32
2022-10-11T07:30:47.643Z,15.53
2022-10-11T07:33:50.262Z,15.68
2022-10-11T07:36:53.218Z,15.98
2022-10-11T07:39:57.081Z,16.25
2022-10-11T07:43:01.068Z,16.41
2022-10-11T07:46:05.916Z,16.69
2022-10-11T07:49:09.118Z,16.52
2022-10-11T07:52:12.937Z,16.76
2022-10-11T07:55:16.305Z,16.74
2022-10-11T07:58:18.855Z,17.12
2022-10-11T08:01:22.425Z,17.15
2022-10-11T08:04:25.487Z,16.67
2022-10-11T08:07:29.950Z,16.85
2022-10-11T08:10:38.941Z,17.15
2022-10-11T08:13:41.689Z,17.26
2022-10-11T08:16:44.988Z,17.33
2022-10-11T08:19:47.728Z,17.18
2022-10-11T08:22:50.665Z,17.10
2022-10-11T08:25:58.312Z,17.15
2022-10-11T08:29:05.409Z,17.31
2022-10-11T08:32:12.093Z,17.70
2022-10-11T08:35:17.560Z,18.30
2022-10-11T08:38:21.490Z,18.85
2022-10-11T08:41:33.585Z,19.63
2022-10-11T08:48:18.731Z,21.36
2022-10-11T08:51:27.738Z,22.25
2022-10-11T08:54:44.699Z,22.28
2022-10-11T08:57:53.965Z,22.59
2022-10-11T09:00:58.141Z,23.53
2022-10-11T09:04:00.800Z,23.71
2022-10-11T09:07:40.912Z,24.51
2022-10-11T09:10:46.307Z,23.78
2022-10-11T09:14:01.320Z,24.91
2022-10-11T09:17:09.896Z,24.99
2022-10-11T09:20:15.646Z,25.42
2022-10-11T09:23:40.141Z,25.23
2022-10-11T09:26:56.885Z,25.24
2022-10-11T09:30:16.638Z,24.26
2022-10-11T09:33:34.909Z,23.80
2022-10-11T09:37:02.007Z,24.10
2022-10-11T09:40:11.051Z,24.25
2022-10-11T09:43:14.874Z,24.26
2022-10-11T09:46:41.317Z,25.32
2022-10-11T09:49:58.991Z,25.70
2022-10-11T09:53:07.988Z,25.28
2022-10-11T09:56:11.418Z,24.40
2022-10-11T09:59:35.292Z,25.01
2022-10-11T10:02:47.693Z,25.36
2022-10-11T10:06:05.568Z,26.34
2022-10-11T10:09:31.156Z,24.42
2022-10-11T10:12:34.392Z,24.41
2022-10-11T10:15:45.340Z,25.25
2022-10-11T10:19:16.041Z,25.73
2022-10-11T10:22:30.221Z,25.84
2022-10-11T10:25:42.304Z,26.89
2022-10-11T10:29:15.016Z,26.71
2022-10-11T10:32:28.120Z,26.48
2022-10-11T10:35:46.361Z,27.02
2022-10-11T10:38:59.772Z,25.58
2022-10-11T10:42:05.351Z,25.95
2022-10-11T10:45:20.077Z,25.48
2022-10-11T10:48:53.762Z,25.95
2022-10-11T10:52:28.022Z,26.26
2022-10-11T10:55:46.699Z,26.57
2022-10-11T10:59:19.872Z,26.90
2022-10-11T11:02:40.271Z,27.08
2022-10-11T11:05:52.780Z,25.84
2022-10-11T11:09:07.150Z,26.18
2022-10-11T11:12:24.516Z,26.73
2022-10-11T11:16:00.100Z,26.48
2022-10-11T11:19:03.572Z,27.57
2022-10-11T11:22:15.137Z,27.60
2022-10-11T11:25:27.577Z,28.24
2022-10-11T11:28:45.501Z,26.61
2022-10-11T11:32:19.436Z,26.18
2022-10-11T11:35:31.499Z,25.58
2022-10-11T11:39:09.826Z,26.38
2022-10-11T11:42:21.336Z,26.96
2022-10-11T11:45:33.826Z,27.63
2022-10-11T11:48:38.979Z,27.75
2022-10-11T11:51:45.531Z,28.08
2022-10-11T11:55:04.003Z,27.83
2022-10-11T11:58:16.303Z,27.69
2022-10-11T12:01:21.540Z,27.82
2022-10-11T12:04:36.140Z,27.76
2022-10-11T12:08:01.599Z,27.53
2022-10-11T12:11:05.025Z,27.44
2022-10-11T12:14:35.059Z,27.73
2022-10-11T12:17:59.353Z,27.90
2022-10-11T12:21:09.647Z,28.19
2022-10-11T12:24:23.419Z,28.20
2022-10-11T12:27:44.584Z,28.08
2022-10-11T12:30:47.396Z,27.82
2022-10-11T12:33:54.904Z,27.03
2022-10-11T12:37:04.531Z,25.56
2022-10-11T12:40:42.043Z,25.34
2022-10-11T12:43:50.692Z,24.71
2022-10-11T12:46:54.609Z,24.21
2022-10-11T12:50:11.879Z,23.51
2022-10-11T12:54:02.278Z,23.10
2022-10-11T12:57:46.591Z,23.85
2022-10-11T13:00:52.630Z,24.27
2022-10-11T13:04:03.775Z,24.07
2022-10-11T13:07:15.239Z,24.45
2022-10-11T13:10:25.231Z,24.99
2022-10-11T13:13:33.667Z,24.33
2022-10-11T13:16:48.837Z,23.46
2022-10-11T13:20:00.613Z,23.10
2022-10-11T13:23:03.566Z,22.95
2022-10-11T13:26:08.128Z,22.88
2022-10-11T13:29:18.518Z,22.27
2022-10-11T13:32:27.529Z,22.19
2022-10-11T13:35:35.473Z,21.77
2022-10-11T13:38:38.133Z,21.45
2022-10-11T13:41:42.310Z,21.53
2022-10-11T13:44:46.533Z,21.09
2022-10-11T13:47:51.708Z,21.14
2022-10-11T13:51:06.799Z,21.04
2022-10-11T13:54:13.470Z,20.65
2022-10-11T13:57:16.717Z,20.58
2022-10-11T14:00:28.725Z,20.34
2022-10-11T14:03:47.979Z,20.22
2022-10-11T14:07:02.789Z,20.10
2022-10-11T14:10:07.429Z,19.90
2022-10-11T14:13:46.588Z,19.59
2022-10-11T14:17:05.323Z,19.58
2022-10-11T14:20:17.016Z,19.37
2022-10-11T14:23:21.285Z,19.24
2022-10-11T14:26:25.717Z,19.01
2022-10-11T14:29:33.695Z,18.96
2022-10-11T14:32:36.720Z,18.92
2022-10-11T14:35:42.479Z,18.90
2022-10-11T14:38:47.420Z,18.85
2022-10-11T14:41:51.425Z,18.71
2022-10-11T14:44:54.361Z,18.67
2022-10-11T14:47:57.401Z,18.46
2022-10-11T14:51:03.282Z,18.46
2022-10-11T14:54:06.954Z,18.43
2022-10-11T14:57:12.494Z,18.36
2022-10-11T15:00:20.813Z,18.28
2022-10-11T15:03:23.356Z,18.21
2022-10-11T15:06:30.286Z,18.12
2022-10-11T15:09:32.946Z,18.16
2022-10-11T15:12:37.463Z,18.10
2022-10-11T15:15:43.882Z,17.98
2022-10-11T15:18:52.125Z,17.88
2022-10-11T15:21:54.852Z,17.84
2022-10-11T15:25:00.430Z,17.76
2022-10-11T15:28:03.502Z,17.69
2022-10-11T15:31:06.518Z,17.60
2022-10-11T15:34:09.251Z,17.56
2022-10-11T15:37:12.296Z,17.48
2022-10-11T15:40:22.304Z,17.38
2022-10-11T15:43:27.622Z,17.28
2022-10-11T15:46:30.457Z,17.13
2022-10-11T15:49:33.558Z,17.03
2022-10-11T15:52:37.001Z,16.91
2022-10-11T15:55:52.171Z,16.74
2022-10-11T15:58:54.743Z,16.57
2022-10-11T16:01:57.774Z,16.41
2022-10-11T16:05:00.687Z,16.30
2022-10-11T16:08:04.018Z,16.16
2022-10-11T16:11:08.878Z,16.10
2022-10-11T16:14:11.559Z,15.97
2022-10-11T16:17:14.393Z,15.80
2022-10-11T16:20:22.388Z,15.66
2022-10-11T16:23:25.379Z,15.65
2022-10-11T16:26:28.282Z,15.67
2022-10-11T16:29:31.330Z,15.61
2022-10-11T16:32:34.563Z,15.65
2022-10-11T16:35:43.100Z,15.69
2022-10-11T16:38:45.698Z,15.81
2022-10-11T16:41:48.697Z,15.78
2022-10-11T16:44:51.561Z,15.73
2022-10-11T16:47:54.481Z,15.50
2022-10-11T16:51:05.610Z,15.30
2022-10-11T16:54:08.534Z,15.34
2022-10-11T16:57:12.870Z,15.43
2022-10-11T17:00:16.751Z,15.78
2022-10-11T17:03:19.438Z,15.93
2022-10-11T17:06:23.121Z,15.85
2022-10-11T17:09:26.203Z,15.94
2022-10-11T17:12:29.513Z,15.98
2022-10-11T17:15:32.117Z,16.07
2022-10-11T17:18:35.169Z,16.12
2022-10-11T17:21:38.492Z,15.95
2022-10-11T17:24:41.486Z,15.92
2022-10-11T17:27:44.077Z,15.76
2022-10-11T17:30:55.459Z,15.56
2022-10-11T17:34:00.182Z,15.54
2022-10-11T17:37:03.633Z,15.45
2022-10-11T17:40:06.770Z,15.33
2022-10-11T17:43:10.760Z,15.13
2022-10-11T17:46:15.655Z,15.03
2022-10-11T17:49:18.860Z,14.88
2022-10-11T17:52:21.628Z,14.89
2022-10-11T17:55:24.514Z,14.76
2022-10-11T17:58:28.859Z,14.58
2022-10-11T18:01:32.563Z,14.49
2022-10-11T18:04:35.897Z,14.64
2022-10-11T18:07:38.597Z,14.60
2022-10-11T18:10:46.725Z,14.31
2022-10-11T18:13:52.136Z,14.16
2022-10-11T18:16:56.561Z,14.36
2022-10-11T18:20:00.611Z,14.18
2022-10-11T18:23:05.094Z,14.10
2022-10-11T18:26:13.547Z,14.08
2022-10-11T18:29:18.031Z,13.94
2022-10-11T18:32:21.109Z,13.92
2022-10-11T18:35:24.290Z,13.72
2022-10-11T18:38:27.059Z,13.84
2022-10-11T18:41:34.200Z,13.84
2022-10-11T18:44:37.010Z,13.88
2022-10-11T18:47:40.303Z,13.73
2022-10-11T18:50:43.259Z,13.45
2022-10-11T18:53:47.300Z,13.27
2022-10-11T18:56:51.812Z,13.50
2022-10-11T18:59:55.134Z,13.35
2022-10-11T19:02:57.792Z,13.37
2022-10-11T19:06:18.405Z,13.27
2022-10-11T19:09:25.432Z,12.98
2022-10-11T19:12:28.527Z,12.49
2022-10-11T19:15:33.651Z,12.62
2022-10-11T19:18:41.701Z,12.68
2022-10-11T19:21:49.262Z,12.73
2022-10-11T19:24:52.588Z,12.69
2022-10-11T19:27:55.725Z,12.74
2022-10-11T19:31:10.021Z,12.79
2022-10-11T19:34:15.943Z,12.75
2022-10-11T19:37:20.268Z,12.89
2022-10-11T19:40:23.097Z,12.77
2022-10-11T19:43:26.168Z,12.84
2022-10-11T19:46:50.348Z,12.71
2022-10-11T19:49:52.447Z,12.60
2022-10-11T19:52:55.105Z,12.56
2022-10-11T19:56:10.323Z,12.65
2022-10-11T19:59:13.728Z,12.61
2022-10-11T20:02:17.944Z,12.41
2022-10-11T20:05:21.723Z,12.30
2022-10-11T20:08:24.340Z,11.85
2022-10-11T20:11:27.632Z,11.56
2022-10-11T20:14:30.487Z,11.47
2022-10-11T20:17:51.338Z,11.66
2022-10-11T20:20:55.981Z,11.56
2022-10-11T20:24:04.141Z,11.71
2022-10-11T20:27:06.910Z,11.88
2022-10-11T20:30:11.292Z,11.90
2022-10-11T20:33:13.851Z,11.86
2022-10-11T20:36:19.569Z,11.86
2022-10-11T20:39:22.160Z,11.78
2022-10-11T20:42:29.698Z,11.62
2022-10-11T20:45:32.691Z,11.52
2022-10-11T20:48:37.019Z,11.60
2022-10-11T20:51:42.009Z,11.58
2022-10-11T20:54:44.899Z,11.26
2022-10-11T20:57:48.287Z,11.50
2022-10-11T21:00:52.145Z,11.56
2022-10-11T21:03:57.291Z,11.49
2022-10-11T21:07:00.194Z,11.36
2022-10-11T21:10:02.785Z,11.46
2022-10-11T21:13:05.833Z,11.60
2022-10-11T21:16:13.560Z,11.59
2022-10-11T21:19:16.488Z,11.70
2022-10-11T21:22:19.485Z,11.60
2022-10-11T21:25:22.411Z,11.64
2022-10-11T21:28:25.135Z,11.73
2022-10-11T21:31:32.881Z,11.63
2022-10-11T21:34:36.734Z,11.52
2022-10-11T21:37:39.831Z,11.51
2022-10-11T21:40:42.553Z,11.40
2022-10-11T21:43:47.731Z,11.33
2022-10-11T21:47:07.384Z,11.35
2022-10-11T21:50:10.916Z,11.43
2022-10-11T21:53:14.836Z,11.58
2022-10-11T21:56:18.432Z,11.40
2022-10-11T21:59:21.084Z,11.77
2022-10-11T22:02:25.574Z,11.49
2022-10-11T22:05:28.438Z,10.88
2022-10-11T22:08:31.604Z,10.53
2022-10-11T22:11:34.833Z,10.45
2022-10-11T22:14:37.433Z,10.66
2022-10-11T22:17:40.313Z,10.72
2022-10-11T22:20:42.984Z,10.80
2022-10-11T22:23:48.664Z,10.98
2022-10-11T22:26:51.255Z,11.07
2022-10-11T22:29:54.084Z,10.98
2022-10-11T22:32:57.121Z,10.94
2022-10-11T22:36:01.906Z,10.59
2022-10-11T22:39:08.397Z,10.42
2022-10-11T22:42:11.546Z,10.09
2022-10-11T22:45:14.119Z,10.06
2022-10-11T22:48:17.069Z,10.20
2022-10-11T22:51:20.659Z,10.23
2022-10-11T22:54:23.684Z,10.21
2022-10-11T22:57:26.280Z,10.32
2022-10-11T23:00:29.312Z,10.49
2022-10-11T23:03:32.697Z,10.53
2022-10-11T23:06:35.700Z,10.35
2022-10-11T23:09:38.262Z,10.31
2022-10-11T23:12:41.322Z,10.24
2022-10-11T23:15:43.944Z,10.17
2022-10-11T23:18:46.796Z,10.41
2022-10-11T23:21:49.535Z,10.44
2022-10-11T23:24:53.562Z,10.34
2022-10-11T23:27:56.183Z,10.45
2022-10-11T23:30:59.136Z,10.34
2022-10-11T23:34:01.734Z,10.44
2022-10-11T23:37:05.409Z,10.37
2022-10-11T23:40:11.330Z,10.51
2022-10-11T23:43:14.350Z,10.55
2022-10-11T23:46:17.092Z,10.40
2022-10-11T23:49:19.946Z,10.37
2022-10-11T23:52:22.539Z,10.58
2022-10-11T23:55:25.435Z,10.26
2022-10-11T23:58:28.074Z,10.26
